Time;durP1;ratioP1;P1;durP2;ratioP2;P2;SDS_P1;SDS_P2;PMS_P1;PMS_P2;Temp;Humidity;BMP_temperature;BMP_pressure;BME280_temperature;BME280_humidity;BME280_pressure;Samples;Min_cycle;Max_cycle;Signal;HPM_P1;HPM_P2
2023/04/21 00:00:53;;;;;;;3.85;3.10;;;21.70;35.30;;;;;;5048572;28;20060;-50
2023/04/21 00:03:22;;;;;;;3.58;3.20;;;21.70;35.30;;;;;;5049148;28;20122;-51
2023/04/21 00:05:49;;;;;;;3.75;3.25;;;21.70;35.40;;;;;;5047437;28;20045;-49
2023/04/21 00:08:16;;;;;;;4.15;3.20;;;21.70;35.40;;;;;;5050305;28;20107;-51
2023/04/21 00:10:42;;;;;;;4.05;3.10;;;21.70;35.50;;;;;;5049167;28;20037;-51
2023/04/21 00:13:08;;;;;;;3.72;3.30;;;21.70;35.60;;;;;;5049301;28;20196;-52
2023/04/21 00:15:34;;;;;;;4.60;3.63;;;21.70;35.60;;;;;;5049656;28;20138;-51
2023/04/21 00:18:00;;;;;;;3.78;3.40;;;21.70;35.60;;;;;;5047248;28;20397;-48
2023/04/21 00:20:26;;;;;;;3.33;3.03;;;21.70;35.70;;;;;;5047484;28;20342;-53
2023/04/21 00:22:53;;;;;;;4.40;3.10;;;21.70;35.70;;;;;;5048203;28;20035;-47
2023/04/21 00:25:18;;;;;;;4.78;3.30;;;21.70;35.70;;;;;;5051316;28;20029;-52
2023/04/21 00:27:44;;;;;;;3.20;2.88;;;21.70;35.70;;;;;;5051020;28;20037;-51
2023/04/21 00:30:10;;;;;;;3.80;3.03;;;21.70;35.80;;;;;;5077454;28;20094;-50
2023/04/21 00:32:36;;;;;;;4.05;3.00;;;21.70;35.90;;;;;;5050281;28;20025;-50
2023/04/21 00:35:02;;;;;;;4.55;3.30;;;21.70;36.00;;;;;;5053253;28;20451;-49
2023/04/21 00:37:28;;;;;;;3.40;2.83;;;21.70;36.00;;;;;;5052578;28;20029;-47
2023/04/21 00:39:54;;;;;;;4.53;3.58;;;21.70;36.00;;;;;;5051624;28;21992;-49
2023/04/21 00:42:20;;;;;;;3.83;3.00;;;21.70;36.00;;;;;;5049401;28;20036;-50
2023/04/21 00:44:46;;;;;;;3.95;3.22;;;21.70;36.00;;;;;;5050851;28;20056;-51
2023/04/21 00:47:12;;;;;;;3.92;3.40;;;21.70;36.10;;;;;;5051012;28;20021;-49
2023/04/21 00:49:37;;;;;;;3.92;3.20;;;21.70;36.10;;;;;;5051178;28;20430;-48
2023/04/21 00:52:05;;;;;;;4.50;3.47;;;21.70;36.10;;;;;;5051652;28;20543;-53
2023/04/21 00:54:34;;;;;;;3.90;3.33;;;21.70;36.10;;;;;;5048828;28;20441;-51
2023/04/21 00:57:02;;;;;;;4.55;3.42;;;21.70;36.10;;;;;;5052239;28;20108;-49
2023/04/21 00:59:29;;;;;;;4.07;2.88;;;21.70;36.10;;;;;;5052045;28;20029;-51
2023/04/21 01:01:56;;;;;;;4.20;3.55;;;21.60;36.10;;;;;;5051641;28;20050;-50
2023/04/21 01:04:21;;;;;;;3.72;3.28;;;21.60;36.10;;;;;;5047719;28;20025;-50
2023/04/21 01:06:47;;;;;;;5.25;3.58;;;21.60;36.10;;;;;;5052400;28;20035;-52
2023/04/21 01:09:14;;;;;;;3.92;3.03;;;21.60;36.20;;;;;;5054426;28;20016;-53
2023/04/21 01:11:39;;;;;;;3.50;2.67;;;21.60;36.20;;;;;;5050809;28;20044;-52
2023/04/21 01:14:06;;;;;;;3.65;3.25;;;21.70;36.40;;;;;;5051774;28;20029;-53
2023/04/21 01:16:33;;;;;;;3.70;3.10;;;21.60;36.30;;;;;;5050733;28;20087;-51
2023/04/21 01:19:00;;;;;;;3.65;3.20;;;21.60;36.30;;;;;;5051763;28;20116;-54
2023/04/21 01:21:27;;;;;;;3.83;3.13;;;21.70;36.40;;;;;;5051503;28;20037;-51
2023/04/21 01:23:53;;;;;;;3.65;3.20;;;21.70;36.40;;;;;;5053459;28;20035;-46
2023/04/21 01:26:21;;;;;;;5.22;3.50;;;21.60;36.40;;;;;;5052695;28;20021;-48
2023/04/21 01:28:47;;;;;;;4.25;3.40;;;21.60;36.40;;;;;;5046606;28;20060;-46
2023/04/21 01:31:15;;;;;;;3.83;3.13;;;21.60;36.40;;;;;;5046181;28;20033;-53
2023/04/21 01:33:42;;;;;;;4.15;3.35;;;21.60;36.50;;;;;;5050992;28;20445;-50
2023/04/21 01:36:09;;;;;;;3.97;3.25;;;21.60;36.50;;;;;;5050260;28;20029;-53
2023/04/21 01:38:40;;;;;;;3.92;3.25;;;21.60;36.50;;;;;;5050843;28;20118;-47
2023/04/21 01:41:06;;;;;;;3.97;3.30;;;21.60;36.50;;;;;;5048519;28;20490;-49
2023/04/21 01:43:32;;;;;;;4.60;3.45;;;21.60;36.60;;;;;;5052726;28;20082;-49
2023/04/21 01:45:57;;;;;;;3.55;3.25;;;21.60;37.20;;;;;;5049404;28;20033;-50
2023/04/21 01:48:23;;;;;;;3.85;3.20;;;21.60;36.70;;;;;;5050280;28;20052;-48
2023/04/21 01:50:49;;;;;;;3.95;3.53;;;21.60;36.70;;;;;;5049232;28;20033;-52
2023/04/21 01:53:15;;;;;;;3.70;3.05;;;21.60;36.80;;;;;;5051658;28;20124;-53
2023/04/21 01:55:41;;;;;;;3.92;3.42;;;21.60;37.40;;;;;;5053517;28;20025;-50
2023/04/21 01:58:08;;;;;;;4.78;3.58;;;21.60;36.80;;;;;;5050844;28;20334;-52
2023/04/21 02:00:34;;;;;;;3.55;3.13;;;21.60;36.90;;;;;;5050749;28;20123;-50
2023/04/21 02:03:00;;;;;;;3.70;3.28;;;21.60;36.90;;;;;;5049546;28;20021;-50
2023/04/21 02:05:26;;;;;;;3.85;3.08;;;21.60;36.90;;;;;;5051871;28;20468;-50
2023/04/21 02:07:52;;;;;;;3.50;3.05;;;21.60;36.90;;;;;;5048853;28;20040;-49
2023/04/21 02:10:17;;;;;;;3.50;3.10;;;21.60;37.00;;;;;;5049484;28;20025;-51
2023/04/21 02:12:43;;;;;;;4.03;3.35;;;21.60;37.00;;;;;;5048065;28;20445;-50
2023/04/21 02:15:10;;;;;;;3.97;3.47;;;21.60;37.00;;;;;;5048189;28;20163;-52
2023/04/21 02:17:35;;;;;;;4.10;3.15;;;21.50;37.00;;;;;;5072528;28;20040;-51
2023/04/21 02:20:02;;;;;;;4.63;3.53;;;21.50;37.00;;;;;;5050393;28;20029;-51
2023/04/21 02:22:28;;;;;;;4.22;3.47;;;21.50;37.10;;;;;;5051467;28;20040;-47
2023/04/21 02:24:54;;;;;;;3.33;2.85;;;21.50;37.10;;;;;;5049948;28;20461;-49
2023/04/21 02:27:19;;;;;;;3.90;3.20;;;21.60;37.10;;;;;;5059487;28;20036;-49
2023/04/21 02:29:45;;;;;;;3.80;3.38;;;21.60;37.20;;;;;;5053712;28;20035;-51
2023/04/21 02:32:11;;;;;;;4.00;3.10;;;21.50;37.10;;;;;;5050664;28;20106;-51
2023/04/21 02:34:37;;;;;;;3.40;3.10;;;21.60;37.20;;;;;;5050209;28;20029;-46
2023/04/21 02:37:03;;;;;;;4.00;3.10;;;21.60;37.20;;;;;;5047464;28;20025;-53
2023/04/21 02:39:29;;;;;;;3.78;3.10;;;21.50;37.20;;;;;;5049368;28;20043;-50
2023/04/21 02:41:57;;;;;;;4.93;2.92;;;21.50;37.20;;;;;;5048131;28;20037;-49
2023/04/21 02:44:23;;;;;;;3.35;2.90;;;21.50;37.20;;;;;;5049764;28;20039;-50
2023/04/21 02:46:48;;;;;;;3.75;2.90;;;21.50;37.30;;;;;;5042371;28;20112;-49
2023/04/21 02:49:14;;;;;;;2.95;2.65;;;21.50;37.30;;;;;;5049587;28;20098;-49
2023/04/21 02:51:40;;;;;;;3.70;3.13;;;21.50;37.30;;;;;;5051003;28;20082;-49
2023/04/21 02:54:06;;;;;;;3.42;2.80;;;21.50;37.30;;;;;;5049970;28;20028;-51
2023/04/21 02:56:33;;;;;;;3.53;2.80;;;21.50;37.40;;;;;;5049979;28;20079;-51
2023/04/21 02:58:59;;;;;;;3.13;2.83;;;21.50;37.40;;;;;;5050642;28;20174;-50
2023/04/21 03:01:25;;;;;;;3.10;2.80;;;21.50;37.40;;;;;;5048080;28;20053;-51
2023/04/21 03:03:51;;;;;;;3.10;2.70;;;21.50;37.40;;;;;;5048525;28;20033;-52
2023/04/21 03:06:17;;;;;;;3.83;3.20;;;21.50;37.40;;;;;;5048749;28;20055;-47
2023/04/21 03:08:44;;;;;;;2.85;2.50;;;21.50;37.40;;;;;;5049803;28;20475;-51
2023/04/21 03:11:10;;;;;;;3.22;2.72;;;21.50;37.50;;;;;;5048641;28;20041;-47
2023/04/21 03:13:36;;;;;;;3.10;2.80;;;21.50;37.50;;;;;;5050534;28;20167;-51
2023/04/21 03:16:02;;;;;;;4.18;3.20;;;21.50;37.50;;;;;;5050198;28;20029;-49
2023/04/21 03:18:28;;;;;;;4.15;2.78;;;21.50;37.50;;;;;;5050888;28;20021;-50
2023/04/21 03:20:59;;;;;;;3.45;3.00;;;21.50;37.50;;;;;;5045990;28;20456;-55
2023/04/21 03:23:25;;;;;;;3.42;2.80;;;21.50;37.50;;;;;;5049623;28;20524;-54
2023/04/21 03:25:51;;;;;;;3.15;2.80;;;21.50;37.60;;;;;;5046895;28;20112;-47
2023/04/21 03:28:17;;;;;;;3.33;2.90;;;21.50;37.60;;;;;;5044780;28;20064;-45
2023/04/21 03:30:42;;;;;;;3.75;3.10;;;21.50;37.60;;;;;;5050347;28;20064;-46
2023/04/21 03:33:08;;;;;;;2.95;2.65;;;21.50;37.70;;;;;;5049635;28;20412;-47
2023/04/21 03:35:34;;;;;;;3.10;2.60;;;21.50;37.70;;;;;;5046000;28;20060;-47
2023/04/21 03:38:00;;;;;;;3.03;2.58;;;21.50;37.70;;;;;;5051460;28;20317;-50
2023/04/21 03:40:26;;;;;;;3.03;2.70;;;21.50;37.70;;;;;;5047237;28;20043;-52
2023/04/21 03:42:52;;;;;;;3.53;3.08;;;21.40;37.80;;;;;;5044080;28;20045;-49
2023/04/21 03:45:21;;;;;;;3.55;2.95;;;21.50;37.80;;;;;;5073078;28;20151;-49
2023/04/21 03:47:47;;;;;;;2.92;2.60;;;21.40;37.70;;;;;;5049056;28;20086;-52
2023/04/21 03:50:13;;;;;;;3.33;2.78;;;21.40;37.80;;;;;;5045998;28;20031;-50
2023/04/21 03:52:39;;;;;;;3.55;3.03;;;21.40;37.90;;;;;;5044433;28;20644;-52
2023/04/21 03:55:10;;;;;;;3.92;3.38;;;21.40;38.00;;;;;;5049829;28;20095;-51
2023/04/21 03:57:40;;;;;;;3.83;3.17;;;21.40;38.10;;;;;;5045342;28;20048;-50
2023/04/21 04:00:11;;;;;;;4.10;3.15;;;21.40;38.10;;;;;;5047603;28;20037;-49
2023/04/21 04:02:41;;;;;;;3.80;3.20;;;21.40;38.10;;;;;;5043188;28;20084;-52
2023/04/21 04:05:07;;;;;;;3.90;3.28;;;21.50;38.10;;;;;;5050029;28;20291;-52
2023/04/21 04:07:33;;;;;;;3.80;3.40;;;21.50;38.10;;;;;;5045617;28;20075;-53
2023/04/21 04:09:59;;;;;;;3.55;2.97;;;21.50;38.10;;;;;;5048850;28;20403;-52
2023/04/21 04:12:25;;;;;;;3.90;3.17;;;21.40;38.10;;;;;;5044928;28;20029;-51
2023/04/21 04:14:51;;;;;;;3.35;3.05;;;21.50;38.10;;;;;;5050457;28;20017;-52
2023/04/21 04:17:16;;;;;;;3.92;3.38;;;21.50;38.10;;;;;;5044332;28;20026;-52
2023/04/21 04:19:42;;;;;;;3.50;3.08;;;21.40;38.10;;;;;;5049334;28;20174;-50
2023/04/21 04:22:08;;;;;;;4.97;3.60;;;21.40;38.10;;;;;;5045033;28;20524;-54
2023/04/21 04:24:34;;;;;;;4.07;3.67;;;21.40;38.10;;;;;;5050149;28;20052;-51
2023/04/21 04:27:02;;;;;;;4.03;3.38;;;21.40;38.10;;;;;;5049062;28;20040;-51
2023/04/21 04:29:28;;;;;;;4.22;3.35;;;21.50;38.20;;;;;;5049541;28;20073;-52
2023/04/21 04:31:55;;;;;;;3.95;3.38;;;21.40;38.10;;;;;;5047743;28;20107;-50
2023/04/21 04:34:22;;;;;;;4.68;3.55;;;21.40;38.10;;;;;;5047173;28;20021;-53
2023/04/21 04:36:49;;;;;;;4.72;3.47;;;21.40;38.10;;;;;;5048782;28;20360;-51
2023/04/21 04:39:17;;;;;;;4.60;3.80;;;21.40;38.10;;;;;;5048627;28;20033;-52
2023/04/21 04:41:43;;;;;;;4.07;3.60;;;21.40;38.10;;;;;;5049665;28;20072;-52
2023/04/21 04:44:10;;;;;;;3.95;3.55;;;21.40;38.10;;;;;;5047484;28;20455;-51
2023/04/21 04:46:35;;;;;;;3.60;3.22;;;21.40;38.10;;;;;;5048911;28;20127;-52
2023/04/21 04:49:01;;;;;;;4.50;3.40;;;21.40;38.10;;;;;;5047023;28;20104;-49
2023/04/21 04:51:27;;;;;;;3.75;3.35;;;21.40;38.10;;;;;;5046313;28;20454;-48
2023/04/21 04:53:53;;;;;;;3.90;3.50;;;21.40;38.20;;;;;;5048372;28;20025;-52
2023/04/21 04:56:20;;;;;;;3.90;3.25;;;21.40;38.20;;;;;;5049702;28;20045;-50
2023/04/21 04:58:46;;;;;;;3.67;3.03;;;21.40;38.20;;;;;;5048924;28;20037;-52
2023/04/21 05:01:16;;;;;;;4.35;3.10;;;21.40;38.20;;;;;;5047711;28;20418;-51
2023/04/21 05:03:43;;;;;;;4.40;3.70;;;21.40;38.20;;;;;;5045492;28;20059;-51
2023/04/21 05:06:08;;;;;;;3.53;3.13;;;21.40;38.20;;;;;;5047105;28;20040;-50
2023/04/21 05:08:35;;;;;;;4.63;3.85;;;21.40;38.30;;;;;;5049001;28;20029;-51
2023/04/21 05:11:00;;;;;;;4.05;3.42;;;21.40;38.30;;;;;;5050766;28;20025;-49
2023/04/21 05:13:26;;;;;;;3.83;3.42;;;21.40;38.30;;;;;;5053303;28;20444;-48
2023/04/21 05:16:02;;;;;;;3.97;3.40;;;21.40;38.30;;;;;;5053135;28;20025;-50
2023/04/21 05:18:28;;;;;;;4.43;3.45;;;21.40;38.30;;;;;;5051061;28;20111;-53
2023/04/21 05:20:55;;;;;;;3.67;3.33;;;21.40;38.30;;;;;;5049472;28;20041;-54
2023/04/21 05:23:21;;;;;;;4.57;3.50;;;21.40;38.40;;;;;;5050528;28;20056;-53
2023/04/21 05:25:47;;;;;;;4.53;3.40;;;21.40;38.40;;;;;;5047442;28;20503;-52
2023/04/21 05:28:14;;;;;;;3.90;3.47;;;21.40;38.40;;;;;;5050490;28;20029;-49
2023/04/21 05:30:40;;;;;;;4.90;3.70;;;21.40;38.50;;;;;;5049136;28;20025;-49
2023/04/21 05:33:06;;;;;;;4.65;3.70;;;21.40;38.50;;;;;;5049240;28;20403;-49
2023/04/21 05:35:32;;;;;;;5.22;3.72;;;21.40;38.50;;;;;;5050354;28;20025;-47
2023/04/21 05:37:58;;;;;;;4.85;3.80;;;21.30;38.50;;;;;;5053351;28;20021;-51
2023/04/21 05:40:24;;;;;;;4.03;3.20;;;21.40;38.50;;;;;;5049693;28;20031;-49
2023/04/21 05:42:50;;;;;;;4.57;3.55;;;21.30;38.50;;;;;;5049417;28;20402;-49
2023/04/21 05:45:16;;;;;;;3.47;3.05;;;21.40;38.50;;;;;;5056875;28;20480;-46
2023/04/21 05:47:41;;;;;;;3.63;2.97;;;21.30;38.40;;;;;;5058063;28;20089;-51
2023/04/21 05:50:07;;;;;;;4.07;3.10;;;21.40;38.40;;;;;;5050806;28;20033;-50
2023/04/21 05:52:35;;;;;;;3.83;3.10;;;21.40;38.50;;;;;;5052262;28;20094;-49
2023/04/21 05:55:01;;;;;;;3.38;3.03;;;21.30;38.40;;;;;;5050810;28;20040;-51
2023/04/21 05:57:27;;;;;;;3.95;3.15;;;21.30;38.50;;;;;;5051539;28;20033;-50
2023/04/21 05:59:53;;;;;;;8.18;3.20;;;21.30;38.50;;;;;;5052636;28;20017;-51
2023/04/21 06:02:18;;;;;;;6.15;3.45;;;21.30;38.50;;;;;;5050484;28;20126;-53
2023/04/21 06:04:44;;;;;;;5.22;3.50;;;21.30;38.60;;;;;;5046332;28;20033;-54
2023/04/21 06:07:12;;;;;;;8.35;3.63;;;21.30;38.60;;;;;;5048075;28;20146;-52
2023/04/21 06:09:41;;;;;;;5.78;3.60;;;21.30;38.70;;;;;;5051041;28;20033;-52
2023/04/21 06:12:06;;;;;;;4.40;3.35;;;21.30;38.70;;;;;;5051671;28;20478;-51
2023/04/21 06:14:32;;;;;;;4.80;3.67;;;21.20;38.70;;;;;;5048713;28;20064;-52
2023/04/21 06:16:58;;;;;;;5.25;3.50;;;21.20;38.80;;;;;;5047318;28;20087;-49
2023/04/21 06:19:24;;;;;;;5.03;3.40;;;21.20;38.80;;;;;;5051507;28;20334;-51
2023/04/21 06:21:50;;;;;;;5.03;3.80;;;21.20;38.80;;;;;;5049949;28;20055;-49
2023/04/21 06:24:23;;;;;;;6.03;3.25;;;21.20;38.90;;;;;;5036958;28;20029;-50
2023/04/21 06:26:51;;;;;;;5.22;3.40;;;21.20;38.90;;;;;;5042541;28;20032;-52
2023/04/21 06:29:17;;;;;;;5.75;3.53;;;21.20;38.90;;;;;;5045308;28;20036;-52
2023/04/21 06:31:42;;;;;;;4.63;3.25;;;21.20;39.00;;;;;;5045413;28;20509;-51
2023/04/21 06:34:08;;;;;;;5.38;3.50;;;21.20;39.10;;;;;;5043592;28;20025;-51
2023/04/21 06:36:34;;;;;;;4.72;3.60;;;21.20;39.10;;;;;;5038817;28;20037;-48
2023/04/21 06:39:00;;;;;;;4.10;3.25;;;21.20;39.20;;;;;;5047061;28;20344;-51
2023/04/21 06:41:26;;;;;;;6.63;3.60;;;21.20;39.20;;;;;;5043245;28;20045;-49
2023/04/21 06:43:51;;;;;;;6.35;4.13;;;21.20;39.30;;;;;;5046160;28;20033;-51
2023/04/21 06:46:17;;;;;;;5.55;3.40;;;21.20;39.40;;;;;;5047219;28;20056;-51
2023/04/21 06:48:43;;;;;;;5.05;3.80;;;21.20;39.40;;;;;;5045506;28;20340;-53
2023/04/21 06:51:09;;;;;;;5.57;3.95;;;21.20;39.50;;;;;;5042359;28;20041;-49
2023/04/21 06:53:36;;;;;;;5.60;3.90;;;21.20;39.60;;;;;;5042603;28;20032;-47
2023/04/21 06:56:02;;;;;;;5.88;4.47;;;21.20;39.70;;;;;;5039160;28;20228;-49
2023/04/21 06:58:28;;;;;;;5.53;3.75;;;21.20;39.80;;;;;;5038154;28;20341;-48
2023/04/21 07:00:54;;;;;;;5.75;3.85;;;21.20;39.80;;;;;;5043538;28;20033;-53
2023/04/21 07:03:20;;;;;;;6.07;4.07;;;21.20;39.80;;;;;;5045661;28;20025;-52
2023/04/21 07:05:46;;;;;;;5.25;3.90;;;21.20;39.90;;;;;;5043536;28;20025;-50
2023/04/21 07:08:11;;;;;;;5.45;3.47;;;21.20;39.90;;;;;;5048191;28;20021;-47
2023/04/21 07:10:37;;;;;;;6.20;4.28;;;21.20;39.90;;;;;;5039748;28;20431;-50
2023/04/21 07:13:03;;;;;;;6.40;4.10;;;21.20;40.00;;;;;;5050321;28;20146;-49
2023/04/21 07:15:29;;;;;;;5.65;3.90;;;21.20;40.00;;;;;;5052436;28;20029;-53
2023/04/21 07:17:55;;;;;;;7.18;3.63;;;21.20;40.00;;;;;;5053875;28;20029;-46
2023/04/21 07:20:21;;;;;;;7.22;4.63;;;21.20;40.00;;;;;;5053607;28;20098;-51
2023/04/21 07:22:47;;;;;;;8.55;3.85;;;21.20;40.00;;;;;;5053626;28;20459;-49
2023/04/21 07:25:13;;;;;;;5.80;4.13;;;21.20;40.00;;;;;;5052332;28;20040;-53
2023/04/21 07:27:39;;;;;;;5.45;4.22;;;21.20;40.00;;;;;;5048314;28;20065;-51
2023/04/21 07:30:05;;;;;;;5.22;4.05;;;21.20;40.10;;;;;;5045958;28;20044;-48
2023/04/21 07:32:32;;;;;;;6.82;4.15;;;21.20;40.10;;;;;;5039630;28;20464;-50
2023/04/21 07:35:00;;;;;;;6.43;4.00;;;21.20;40.10;;;;;;5041198;28;20033;-52
2023/04/21 07:37:26;;;;;;;4.63;3.78;;;21.20;40.10;;;;;;5047336;28;20029;-51
2023/04/21 07:39:51;;;;;;;4.35;3.47;;;21.20;40.10;;;;;;5044115;28;20364;-47
2023/04/21 07:42:17;;;;;;;4.65;3.63;;;21.20;40.10;;;;;;5038951;28;20029;-48
2023/04/21 07:44:43;;;;;;;5.03;4.13;;;21.20;40.10;;;;;;5031827;28;20132;-51
2023/04/21 07:47:09;;;;;;;5.28;3.80;;;21.20;40.10;;;;;;5045947;28;20360;-49
2023/04/21 07:49:35;;;;;;;5.50;3.72;;;21.20;40.20;;;;;;5042566;28;20060;-51
2023/04/21 07:52:01;;;;;;;5.38;3.88;;;21.20;40.20;;;;;;5040852;28;20056;-49
2023/04/21 07:54:27;;;;;;;5.65;3.95;;;21.20;40.10;;;;;;5041402;28;20021;-52
2023/04/21 07:56:52;;;;;;;4.95;3.78;;;21.20;40.10;;;;;;5040238;28;20178;-49
2023/04/21 07:59:18;;;;;;;5.78;4.10;;;21.20;40.10;;;;;;5049591;28;20025;-47
2023/04/21 08:01:44;;;;;;;6.32;4.20;;;21.20;40.10;;;;;;5052638;28;20083;-48
2023/04/21 08:04:10;;;;;;;6.45;4.47;;;21.20;40.20;;;;;;5051862;28;20049;-53
2023/04/21 08:06:36;;;;;;;5.07;4.05;;;21.20;40.30;;;;;;5063205;28;20024;-46
2023/04/21 08:09:03;;;;;;;5.90;4.43;;;21.20;40.30;;;;;;5061038;28;20060;-49
2023/04/21 08:11:29;;;;;;;8.02;3.88;;;21.20;40.30;;;;;;5074539;28;20347;-48
2023/04/21 08:13:56;;;;;;;5.93;4.20;;;21.20;40.30;;;;;;5074658;28;20108;-50
2023/04/21 08:16:22;;;;;;;5.78;4.43;;;21.20;40.30;;;;;;5061221;28;20101;-50
2023/04/21 08:18:48;;;;;;;5.47;4.20;;;21.20;40.30;;;;;;5069776;28;20028;-50
2023/04/21 08:21:14;;;;;;;4.68;4.18;;;21.20;40.30;;;;;;5070913;28;20036;-49
2023/04/21 08:23:40;;;;;;;5.97;3.83;;;21.20;40.30;;;;;;5060611;28;20036;-49
2023/04/21 08:26:06;;;;;;;6.68;4.25;;;21.30;40.40;;;;;;5055403;28;20020;-51
2023/04/21 08:28:31;;;;;;;5.03;3.72;;;21.20;40.30;;;;;;5052367;28;20017;-52
2023/04/21 08:30:59;;;;;;;5.38;4.30;;;21.30;40.40;;;;;;5052854;28;20035;-50
2023/04/21 08:33:25;;;;;;;5.90;4.25;;;21.20;40.30;;;;;;5053009;28;20033;-47
2023/04/21 08:35:51;;;;;;;6.88;4.53;;;21.20;40.60;;;;;;5052801;28;20104;-51
2023/04/21 08:38:17;;;;;;;5.28;4.18;;;21.30;40.40;;;;;;5053228;28;20066;-47
2023/04/21 08:40:43;;;;;;;4.70;3.85;;;21.30;40.40;;;;;;5052947;28;20086;-51
2023/04/21 08:43:09;;;;;;;5.18;4.20;;;21.30;40.40;;;;;;5052643;28;20444;-50
2023/04/21 08:45:35;;;;;;;5.05;4.22;;;21.30;40.40;;;;;;5056180;28;20083;-51
2023/04/21 08:48:03;;;;;;;5.88;4.35;;;21.30;40.40;;;;;;5056505;28;20057;-47
2023/04/21 08:50:30;;;;;;;5.20;4.10;;;21.30;40.40;;;;;;5056203;28;20021;-50
2023/04/21 08:52:56;;;;;;;6.18;3.92;;;21.30;40.40;;;;;;5056654;28;20412;-51
2023/04/21 08:55:28;;;;;;;5.65;4.10;;;21.30;40.40;;;;;;5059831;28;20333;-49
2023/04/21 08:57:54;;;;;;;5.13;3.80;;;21.30;40.40;;;;;;5067390;28;20033;-49
2023/04/21 09:00:20;;;;;;;4.20;3.58;;;21.40;40.50;;;;;;5063848;28;20037;-48
2023/04/21 09:02:57;;;;;;;5.88;4.10;;;21.40;40.50;;;;;;5055423;28;20060;-46
2023/04/21 09:05:28;;;;;;;4.70;4.15;;;21.40;40.40;;;;;;5056072;28;20033;-54
2023/04/21 09:08:08;;;;;;;4.97;4.10;;;21.30;40.50;;;;;;5056204;28;20082;-54
2023/04/21 09:10:42;;;;;;;6.85;4.72;;;21.40;40.80;;;;;;5055497;28;20032;-50
2023/04/21 09:13:09;;;;;;;4.47;3.97;;;21.40;41.00;;;;;;5057986;28;20326;-50
2023/04/21 09:15:42;;;;;;;6.18;3.75;;;21.40;41.20;;;;;;5056024;28;20029;-50
2023/04/21 09:18:21;;;;;;;6.18;4.47;;;21.40;41.30;;;;;;5052944;28;20119;-52
2023/04/21 09:20:50;;;;;;;5.28;4.20;;;21.40;41.30;;;;;;5049019;28;20112;-51
2023/04/21 09:23:16;;;;;;;5.40;4.25;;;21.40;41.30;;;;;;5048986;28;20053;-46
2023/04/21 09:25:43;;;;;;;5.35;4.10;;;21.40;41.20;;;;;;5052009;28;20050;-53
2023/04/21 09:28:11;;;;;;;5.30;4.35;;;21.50;41.20;;;;;;5050692;28;20155;-53
2023/04/21 09:30:41;;;;;;;6.03;4.45;;;21.40;41.10;;;;;;5054724;28;20104;-50
2023/04/21 09:33:15;;;;;;;5.50;4.43;;;21.40;41.10;;;;;;5053703;28;20094;-53
2023/04/21 09:35:41;;;;;;;6.88;5.05;;;21.40;41.10;;;;;;5054220;28;20037;-50
2023/04/21 09:38:11;;;;;;;7.18;4.38;;;21.50;41.10;;;;;;5054247;28;20025;-50
2023/04/21 09:40:37;;;;;;;6.10;4.78;;;21.50;41.20;;;;;;5054160;28;20094;-49
2023/04/21 09:43:03;;;;;;;7.25;5.10;;;21.50;41.20;;;;;;5047294;28;20362;-51
2023/04/21 09:45:29;;;;;;;5.80;4.80;;;21.50;41.20;;;;;;5053652;28;20045;-50
2023/04/21 09:47:57;;;;;;;6.43;4.90;;;21.50;41.20;;;;;;5053885;28;20025;-50
2023/04/21 09:50:24;;;;;;;6.72;4.68;;;21.50;41.20;;;;;;5054217;28;20033;-49
2023/04/21 09:52:52;;;;;;;6.85;4.85;;;21.50;41.30;;;;;;5054536;28;20032;-49
2023/04/21 09:55:21;;;;;;;6.22;4.68;;;21.50;41.30;;;;;;5051365;28;20136;-49
2023/04/21 09:57:48;;;;;;;6.22;4.55;;;21.50;41.30;;;;;;5055407;28;20099;-45
2023/04/21 10:00:16;;;;;;;5.40;4.40;;;21.50;41.30;;;;;;5055433;28;20032;-50
2023/04/21 10:02:51;;;;;;;5.18;4.60;;;21.60;41.40;;;;;;5055047;28;20049;-46
2023/04/21 10:05:17;;;;;;;;;;;21.60;41.30;;;;;;5060816;28;20060;-46
2023/04/21 10:07:47;;;;;;;6.78;4.32;;;21.60;41.40;;;;;;5053888;28;19959;-48
2023/04/21 10:10:27;;;;;;;6.20;4.28;;;21.60;41.40;;;;;;5054639;28;20425;-47
2023/04/21 10:12:54;;;;;;;7.55;4.90;;;21.60;41.40;;;;;;5038991;28;20449;-49
2023/04/21 10:15:37;;;;;;;6.70;4.55;;;21.60;41.40;;;;;;5035289;28;20036;-51
2023/04/21 10:18:22;;;;;;;6.28;4.50;;;21.60;41.30;;;;;;5041506;28;20364;-52
2023/04/21 10:21:03;;;;;;;7.95;5.18;;;21.60;41.20;;;;;;5046680;28;20062;-51
2023/04/21 10:23:38;;;;;;;6.80;4.68;;;21.60;41.10;;;;;;5037254;28;20399;-48
2023/04/21 10:26:08;;;;;;;5.85;4.75;;;21.60;41.00;;;;;;5042823;28;20021;-52
2023/04/21 10:28:46;;;;;;;6.25;4.82;;;21.60;41.00;;;;;;5040420;28;20052;-51
2023/04/21 10:31:35;;;;;;;6.47;4.60;;;21.70;41.00;;;;;;5044525;28;20017;-52
2023/04/21 10:34:07;;;;;;;6.60;4.47;;;21.70;40.90;;;;;;5044342;28;20041;-51
2023/04/21 10:36:45;;;;;;;5.60;4.30;;;21.70;40.80;;;;;;5042520;28;20052;-47
2023/04/21 10:39:47;;;;;;;6.10;4.35;;;21.70;40.80;;;;;;5044395;28;20388;-50
2023/04/21 10:42:16;;;;;;;5.70;4.80;;;21.70;40.70;;;;;;5004702;28;20374;-49
2023/04/21 10:44:43;;;;;;;5.35;4.28;;;21.70;40.70;;;;;;5038941;28;20036;-52
2023/04/21 10:47:09;;;;;;;5.22;4.40;;;21.80;40.70;;;;;;5048087;28;20036;-49
2023/04/21 10:49:39;;;;;;;4.50;3.80;;;21.80;40.70;;;;;;5050285;28;20032;-48
2023/04/21 10:52:07;;;;;;;7.00;5.15;;;21.80;40.70;;;;;;5044995;28;20033;-45
2023/04/21 10:54:45;;;;;;;4.85;4.20;;;21.80;40.60;;;;;;5041357;28;20412;-47
2023/04/21 10:57:13;;;;;;;5.38;4.18;;;21.80;40.60;;;;;;5033569;28;20460;-47
2023/04/21 10:59:41;;;;;;;6.20;4.45;;;21.80;40.50;;;;;;5045220;28;20116;-47
2023/04/21 11:02:11;;;;;;;5.05;4.18;;;21.80;40.40;;;;;;5039482;28;20181;-47
2023/04/21 11:04:43;;;;;;;5.25;4.05;;;21.80;40.40;;;;;;5039399;28;20083;-51
2023/04/21 11:07:20;;;;;;;4.88;4.38;;;21.80;40.30;;;;;;5046770;28;20043;-51
2023/04/21 11:09:47;;;;;;;6.53;4.70;;;21.80;40.30;;;;;;5054802;28;20372;-50
2023/04/21 11:12:16;;;;;;;5.22;4.55;;;21.80;40.30;;;;;;5053571;28;20120;-47
2023/04/21 11:14:46;;;;;;;5.25;4.68;;;21.80;40.30;;;;;;5051111;28;20029;-50
2023/04/21 11:17:17;;;;;;;5.47;4.50;;;21.80;40.20;;;;;;5053471;28;20364;-46
2023/04/21 11:19:52;;;;;;;5.97;4.45;;;21.80;40.20;;;;;;5042608;28;20048;-47
2023/04/21 11:22:18;;;;;;;;;;;21.90;40.20;;;;;;5047419;28;20045;-48
2023/04/21 11:24:45;;;;;;;6.32;5.03;;;21.90;40.20;;;;;;5053915;28;19908;-50
2023/04/21 11:27:13;;;;;;;6.45;4.35;;;21.90;40.20;;;;;;5043954;28;20040;-46
2023/04/21 11:29:39;;;;;;;5.00;4.20;;;21.90;40.20;;;;;;5039670;28;20471;-49
2023/04/21 11:32:06;;;;;;;4.90;4.30;;;21.90;40.20;;;;;;5042695;28;20025;-49
2023/04/21 11:34:32;;;;;;;4.78;4.20;;;21.90;40.20;;;;;;5043639;28;20166;-53
2023/04/21 11:36:58;;;;;;;5.80;4.80;;;21.90;40.20;;;;;;5042512;28;20120;-53
2023/04/21 11:39:23;;;;;;;6.60;4.85;;;21.90;40.20;;;;;;5043637;28;20033;-50
2023/04/21 11:41:50;;;;;;;5.32;4.82;;;21.90;40.20;;;;;;5046442;28;20029;-52
2023/04/21 11:44:33;;;;;;;5.07;4.28;;;21.90;40.20;;;;;;5039827;28;20364;-50
2023/04/21 11:46:59;;;;;;;6.15;5.07;;;21.90;40.20;;;;;;5038511;28;20136;-45
2023/04/21 11:49:28;;;;;;;7.35;5.28;;;21.90;40.60;;;;;;5042667;28;20393;-47
2023/04/21 11:51:55;;;;;;;7.03;5.25;;;22.00;41.40;;;;;;5035887;28;20029;-45
2023/04/21 11:54:23;;;;;;;6.65;5.63;;;22.00;41.90;;;;;;5035205;28;20021;-50
2023/04/21 11:56:50;;;;;;;6.63;5.85;;;22.10;42.30;;;;;;5041544;28;20445;-46
2023/04/21 11:59:21;;;;;;;7.28;5.65;;;22.10;42.40;;;;;;5051623;28;20044;-49
2023/04/21 12:01:49;;;;;;;6.75;5.55;;;22.10;42.30;;;;;;5051173;28;20041;-47
2023/04/21 12:04:17;;;;;;;9.40;5.80;;;22.10;42.20;;;;;;5041087;28;20125;-49
2023/04/21 12:06:45;;;;;;;8.90;6.15;;;22.10;42.10;;;;;;5034483;28;20368;-49
2023/04/21 12:09:18;;;;;;;7.10;5.68;;;22.10;42.20;;;;;;5043599;28;20028;-49
2023/04/21 12:11:50;;;;;;;6.28;5.40;;;22.20;42.30;;;;;;5032952;28;20033;-51
2023/04/21 12:14:21;;;;;;;7.18;5.80;;;22.20;42.30;;;;;;5035812;28;20357;-51
2023/04/21 12:16:55;;;;;;;7.80;5.53;;;22.20;42.40;;;;;;5035756;28;20045;-46
2023/04/21 12:19:38;;;;;;;8.65;5.90;;;22.20;42.30;;;;;;5054252;28;20039;-50
2023/04/21 12:22:18;;;;;;;6.10;5.40;;;22.30;42.30;;;;;;5054445;28;20037;-48
2023/04/21 12:24:45;;;;;;;6.35;5.53;;;22.30;42.30;;;;;;5060474;28;20032;-52
2023/04/21 12:27:11;;;;;;;6.35;5.38;;;22.30;42.30;;;;;;5061035;28;20055;-50
2023/04/21 12:29:38;;;;;;;6.88;5.60;;;22.30;42.30;;;;;;5063799;28;20125;-47
2023/04/21 12:32:07;;;;;;;7.28;5.65;;;22.30;42.20;;;;;;5043783;28;20031;-50
2023/04/21 12:34:34;;;;;;;6.18;5.15;;;22.30;42.20;;;;;;5069807;28;20104;-50
2023/04/21 12:37:00;;;;;;;6.43;5.53;;;22.30;42.20;;;;;;5062168;28;20044;-52
2023/04/21 12:39:26;;;;;;;8.80;5.75;;;22.30;42.10;;;;;;5054143;28;20048;-50
2023/04/21 12:41:52;;;;;;;6.75;5.50;;;22.30;42.10;;;;;;5054340;28;20037;-48
2023/04/21 12:44:18;;;;;;;6.00;5.40;;;22.30;42.10;;;;;;5054598;28;20326;-51
2023/04/21 12:46:44;;;;;;;5.57;4.97;;;22.30;42.10;;;;;;5058173;28;20041;-45
2023/04/21 12:49:10;;;;;;;9.35;5.15;;;22.30;42.00;;;;;;5055781;28;20098;-50